sensor_id;sensor_type;location;lat;lon;timestamp;P1;durP1;ratioP1;P2;durP2;ratioP2
50219;SDS011;36110;51.536;7.562;2022-08-03T00:01:01;2.20;;;1.50;;
50219;SDS011;36110;51.536;7.562;2022-08-03T00:03:26;1.45;;;1.35;;
50219;SDS011;36110;51.536;7.562;2022-08-03T00:05:52;1.70;;;1.60;;
50219;SDS011;36110;51.536;7.562;2022-08-03T00:08:17;1.50;;;1.40;;
50219;SDS011;36110;51.536;7.562;2022-08-03T00:10:42;1.70;;;1.60;;
50219;SDS011;36110;51.536;7.562;2022-08-03T00:13:08;1.50;;;1.40;;
50219;SDS011;36110;51.536;7.562;2022-08-03T00:15:33;1.60;;;1.50;;
50219;SDS011;36110;51.536;7.562;2022-08-03T00:17:59;1.70;;;1.40;;
50219;SDS011;36110;51.536;7.562;2022-08-03T00:20:24;1.55;;;1.40;;
50219;SDS011;36110;51.536;7.562;2022-08-03T00:22:50;3.17;;;2.17;;
50219;SDS011;36110;51.536;7.562;2022-08-03T00:25:15;1.33;;;1.23;;
50219;SDS011;36110;51.536;7.562;2022-08-03T00:27:41;2.13;;;1.40;;
50219;SDS011;36110;51.536;7.562;2022-08-03T00:30:06;2.10;;;1.85;;
50219;SDS011;36110;51.536;7.562;2022-08-03T00:32:32;1.75;;;1.65;;
50219;SDS011;36110;51.536;7.562;2022-08-03T00:34:57;1.50;;;1.40;;
50219;SDS011;36110;51.536;7.562;2022-08-03T00:37:22;1.55;;;1.45;;
50219;SDS011;36110;51.536;7.562;2022-08-03T00:39:48;1.52;;;1.42;;
50219;SDS011;36110;51.536;7.562;2022-08-03T00:42:13;1.77;;;1.67;;
50219;SDS011;36110;51.536;7.562;2022-08-03T00:44:39;5.72;;;2.15;;
50219;SDS011;36110;51.536;7.562;2022-08-03T00:47:08;1.55;;;1.45;;
50219;SDS011;36110;51.536;7.562;2022-08-03T00:49:34;1.60;;;1.50;;
50219;SDS011;36110;51.536;7.562;2022-08-03T00:52:00;1.92;;;1.83;;
50219;SDS011;36110;51.536;7.562;2022-08-03T00:54:26;1.52;;;1.42;;
50219;SDS011;36110;51.536;7.562;2022-08-03T00:56:51;1.20;;;1.20;;
50219;SDS011;36110;51.536;7.562;2022-08-03T00:59:17;2.10;;;1.92;;
50219;SDS011;36110;51.536;7.562;2022-08-03T01:01:43;2.63;;;2.42;;
50219;SDS011;36110;51.536;7.562;2022-08-03T01:04:08;2.00;;;1.80;;
50219;SDS011;36110;51.536;7.562;2022-08-03T01:19:53;1.20;;;1.20;;
50219;SDS011;36110;51.536;7.562;2022-08-03T01:25:24;1.70;;;1.60;;
50219;SDS011;36110;51.536;7.562;2022-08-03T01:30:47;1.45;;;1.35;;
50219;SDS011;36110;51.536;7.562;2022-08-03T01:33:19;1.05;;;1.05;;
50219;SDS011;36110;51.536;7.562;2022-08-03T01:35:51;3.67;;;2.47;;
50219;SDS011;36110;51.536;7.562;2022-08-03T01:38:24;1.42;;;1.33;;
50219;SDS011;36110;51.536;7.562;2022-08-03T01:40:58;1.45;;;1.35;;
50219;SDS011;36110;51.536;7.562;2022-08-03T01:43:28;1.40;;;1.30;;
50219;SDS011;36110;51.536;7.562;2022-08-03T01:45:55;1.13;;;1.13;;
50219;SDS011;36110;51.536;7.562;2022-08-03T01:48:21;1.17;;;1.17;;
50219;SDS011;36110;51.536;7.562;2022-08-03T01:50:47;1.40;;;1.30;;
50219;SDS011;36110;51.536;7.562;2022-08-03T01:53:16;1.20;;;1.20;;
50219;SDS011;36110;51.536;7.562;2022-08-03T01:55:43;1.50;;;1.40;;
50219;SDS011;36110;51.536;7.562;2022-08-03T01:58:10;1.40;;;1.30;;
50219;SDS011;36110;51.536;7.562;2022-08-03T02:00:36;1.25;;;1.25;;
50219;SDS011;36110;51.536;7.562;2022-08-03T02:03:06;1.30;;;1.20;;
50219;SDS011;36110;51.536;7.562;2022-08-03T02:05:31;1.40;;;1.30;;
50219;SDS011;36110;51.536;7.562;2022-08-03T02:07:57;1.25;;;1.25;;
50219;SDS011;36110;51.536;7.562;2022-08-03T02:10:24;1.20;;;1.20;;
50219;SDS011;36110;51.536;7.562;2022-08-03T02:12:50;1.10;;;1.10;;
50219;SDS011;36110;51.536;7.562;2022-08-03T02:15:16;1.15;;;1.15;;
50219;SDS011;36110;51.536;7.562;2022-08-03T02:17:43;1.25;;;1.20;;
50219;SDS011;36110;51.536;7.562;2022-08-03T02:20:10;1.50;;;1.40;;
50219;SDS011;36110;51.536;7.562;2022-08-03T02:22:38;4.40;;;2.20;;
50219;SDS011;36110;51.536;7.562;2022-08-03T02:25:04;1.20;;;1.20;;
50219;SDS011;36110;51.536;7.562;2022-08-03T02:27:29;3.40;;;1.50;;
50219;SDS011;36110;51.536;7.562;2022-08-03T02:30:01;1.15;;;1.15;;
50219;SDS011;36110;51.536;7.562;2022-08-03T02:32:34;1.27;;;1.27;;
50219;SDS011;36110;51.536;7.562;2022-08-03T02:35:01;1.17;;;1.17;;
50219;SDS011;36110;51.536;7.562;2022-08-03T02:37:30;1.20;;;1.20;;
50219;SDS011;36110;51.536;7.562;2022-08-03T02:40:02;1.42;;;1.33;;
50219;SDS011;36110;51.536;7.562;2022-08-03T02:42:30;1.50;;;1.40;;
50219;SDS011;36110;51.536;7.562;2022-08-03T02:44:57;2.25;;;2.05;;
50219;SDS011;36110;51.536;7.562;2022-08-03T02:47:23;1.30;;;1.30;;
50219;SDS011;36110;51.536;7.562;2022-08-03T02:49:51;1.13;;;1.13;;
50219;SDS011;36110;51.536;7.562;2022-08-03T02:52:21;1.70;;;1.35;;
50219;SDS011;36110;51.536;7.562;2022-08-03T02:54:49;2.40;;;2.20;;
50219;SDS011;36110;51.536;7.562;2022-08-03T02:57:16;1.58;;;1.40;;
50219;SDS011;36110;51.536;7.562;2022-08-03T02:59:43;1.42;;;1.40;;
50219;SDS011;36110;51.536;7.562;2022-08-03T03:02:09;1.45;;;1.30;;
50219;SDS011;36110;51.536;7.562;2022-08-03T03:04:35;1.30;;;1.20;;
50219;SDS011;36110;51.536;7.562;2022-08-03T03:07:00;1.27;;;1.23;;
50219;SDS011;36110;51.536;7.562;2022-08-03T03:09:26;1.60;;;1.50;;
50219;SDS011;36110;51.536;7.562;2022-08-03T03:11:52;1.33;;;1.20;;
50219;SDS011;36110;51.536;7.562;2022-08-03T03:14:18;1.05;;;1.05;;
50219;SDS011;36110;51.536;7.562;2022-08-03T03:16:44;1.30;;;1.30;;
50219;SDS011;36110;51.536;7.562;2022-08-03T03:19:10;1.50;;;1.40;;
50219;SDS011;36110;51.536;7.562;2022-08-03T03:21:36;2.15;;;1.30;;
50219;SDS011;36110;51.536;7.562;2022-08-03T03:24:02;1.13;;;1.13;;
50219;SDS011;36110;51.536;7.562;2022-08-03T03:26:29;1.50;;;1.40;;
50219;SDS011;36110;51.536;7.562;2022-08-03T03:28:54;1.20;;;1.20;;
50219;SDS011;36110;51.536;7.562;2022-08-03T03:31:20;1.60;;;1.10;;
50219;SDS011;36110;51.536;7.562;2022-08-03T03:33:46;1.80;;;1.70;;
50219;SDS011;36110;51.536;7.562;2022-08-03T03:36:11;1.77;;;1.45;;
50219;SDS011;36110;51.536;7.562;2022-08-03T03:38:37;1.40;;;1.30;;
50219;SDS011;36110;51.536;7.562;2022-08-03T03:41:02;1.27;;;1.20;;
50219;SDS011;36110;51.536;7.562;2022-08-03T03:43:28;1.50;;;1.40;;
50219;SDS011;36110;51.536;7.562;2022-08-03T03:45:54;1.33;;;1.23;;
50219;SDS011;36110;51.536;7.562;2022-08-03T03:48:19;1.38;;;1.30;;
50219;SDS011;36110;51.536;7.562;2022-08-03T03:50:45;1.10;;;1.10;;
50219;SDS011;36110;51.536;7.562;2022-08-03T03:53:11;1.23;;;1.13;;
50219;SDS011;36110;51.536;7.562;2022-08-03T03:55:37;1.38;;;1.30;;
50219;SDS011;36110;51.536;7.562;2022-08-03T03:58:03;1.08;;;1.08;;
50219;SDS011;36110;51.536;7.562;2022-08-03T04:00:29;1.42;;;1.33;;
50219;SDS011;36110;51.536;7.562;2022-08-03T04:02:54;1.45;;;1.35;;
50219;SDS011;36110;51.536;7.562;2022-08-03T04:05:20;1.30;;;1.30;;
50219;SDS011;36110;51.536;7.562;2022-08-03T04:08:05;1.20;;;1.20;;
50219;SDS011;36110;51.536;7.562;2022-08-03T04:13:43;1.40;;;1.30;;
50219;SDS011;36110;51.536;7.562;2022-08-03T04:16:17;1.23;;;1.23;;
50219;SDS011;36110;51.536;7.562;2022-08-03T04:18:45;1.10;;;1.10;;
50219;SDS011;36110;51.536;7.562;2022-08-03T04:21:13;1.30;;;1.20;;
50219;SDS011;36110;51.536;7.562;2022-08-03T04:23:40;1.17;;;1.08;;
50219;SDS011;36110;51.536;7.562;2022-08-03T04:26:08;1.08;;;1.08;;
50219;SDS011;36110;51.536;7.562;2022-08-03T04:28:36;0.95;;;0.95;;
50219;SDS011;36110;51.536;7.562;2022-08-03T04:31:03;1.10;;;1.10;;
50219;SDS011;36110;51.536;7.562;2022-08-03T04:33:32;1.25;;;1.23;;
50219;SDS011;36110;51.536;7.562;2022-08-03T04:35:59;1.05;;;1.05;;
50219;SDS011;36110;51.536;7.562;2022-08-03T04:38:25;1.33;;;1.23;;
50219;SDS011;36110;51.536;7.562;2022-08-03T04:40:51;1.20;;;1.10;;
50219;SDS011;36110;51.536;7.562;2022-08-03T04:43:17;1.20;;;1.20;;
50219;SDS011;36110;51.536;7.562;2022-08-03T04:45:43;1.88;;;1.20;;
50219;SDS011;36110;51.536;7.562;2022-08-03T04:48:11;1.30;;;1.20;;
50219;SDS011;36110;51.536;7.562;2022-08-03T04:50:38;1.10;;;1.10;;
50219;SDS011;36110;51.536;7.562;2022-08-03T04:53:05;1.30;;;1.30;;
50219;SDS011;36110;51.536;7.562;2022-08-03T04:55:31;1.20;;;1.10;;
50219;SDS011;36110;51.536;7.562;2022-08-03T04:57:58;1.33;;;1.30;;
50219;SDS011;36110;51.536;7.562;2022-08-03T05:00:24;4.90;;;3.15;;
50219;SDS011;36110;51.536;7.562;2022-08-03T05:02:50;1.30;;;1.30;;
50219;SDS011;36110;51.536;7.562;2022-08-03T05:05:15;1.20;;;1.20;;
50219;SDS011;36110;51.536;7.562;2022-08-03T05:07:41;1.20;;;1.10;;
50219;SDS011;36110;51.536;7.562;2022-08-03T05:10:08;1.27;;;1.17;;
50219;SDS011;36110;51.536;7.562;2022-08-03T05:12:34;1.40;;;1.30;;
50219;SDS011;36110;51.536;7.562;2022-08-03T05:14:59;1.27;;;1.20;;
50219;SDS011;36110;51.536;7.562;2022-08-03T05:17:25;1.13;;;1.13;;
50219;SDS011;36110;51.536;7.562;2022-08-03T05:19:50;1.13;;;1.13;;
50219;SDS011;36110;51.536;7.562;2022-08-03T05:22:16;1.30;;;1.20;;
50219;SDS011;36110;51.536;7.562;2022-08-03T05:24:41;1.15;;;1.15;;
50219;SDS011;36110;51.536;7.562;2022-08-03T05:27:06;1.77;;;1.55;;
50219;SDS011;36110;51.536;7.562;2022-08-03T05:29:34;1.10;;;1.10;;
50219;SDS011;36110;51.536;7.562;2022-08-03T05:31:59;1.17;;;1.13;;
50219;SDS011;36110;51.536;7.562;2022-08-03T05:34:26;4.63;;;2.90;;
50219;SDS011;36110;51.536;7.562;2022-08-03T05:36:51;6.60;;;3.03;;
50219;SDS011;36110;51.536;7.562;2022-08-03T05:39:16;3.03;;;2.38;;
50219;SDS011;36110;51.536;7.562;2022-08-03T05:41:42;7.38;;;2.65;;
50219;SDS011;36110;51.536;7.562;2022-08-03T05:44:07;4.90;;;2.75;;
50219;SDS011;36110;51.536;7.562;2022-08-03T05:46:32;5.93;;;3.00;;
50219;SDS011;36110;51.536;7.562;2022-08-03T05:48:58;4.25;;;2.28;;
50219;SDS011;36110;51.536;7.562;2022-08-03T05:51:23;2.45;;;2.25;;
50219;SDS011;36110;51.536;7.562;2022-08-03T05:53:48;2.45;;;2.20;;
50219;SDS011;36110;51.536;7.562;2022-08-03T05:56:14;3.40;;;2.08;;
50219;SDS011;36110;51.536;7.562;2022-08-03T05:58:39;3.00;;;2.40;;
50219;SDS011;36110;51.536;7.562;2022-08-03T06:01:04;2.58;;;2.28;;
50219;SDS011;36110;51.536;7.562;2022-08-03T06:03:30;2.22;;;1.83;;
50219;SDS011;36110;51.536;7.562;2022-08-03T06:05:55;3.05;;;2.55;;
50219;SDS011;36110;51.536;7.562;2022-08-03T06:08:21;5.05;;;2.47;;
50219;SDS011;36110;51.536;7.562;2022-08-03T06:10:47;3.13;;;1.80;;
50219;SDS011;36110;51.536;7.562;2022-08-03T06:13:12;4.13;;;2.10;;
50219;SDS011;36110;51.536;7.562;2022-08-03T06:15:38;3.70;;;2.33;;
50219;SDS011;36110;51.536;7.562;2022-08-03T06:18:03;2.20;;;2.00;;
50219;SDS011;36110;51.536;7.562;2022-08-03T06:20:28;2.50;;;1.90;;
50219;SDS011;36110;51.536;7.562;2022-08-03T06:22:54;3.13;;;2.03;;
50219;SDS011;36110;51.536;7.562;2022-08-03T06:25:19;3.65;;;2.17;;
50219;SDS011;36110;51.536;7.562;2022-08-03T06:27:45;3.85;;;2.47;;
50219;SDS011;36110;51.536;7.562;2022-08-03T06:30:10;3.17;;;2.00;;
50219;SDS011;36110;51.536;7.562;2022-08-03T06:32:36;2.97;;;2.28;;
50219;SDS011;36110;51.536;7.562;2022-08-03T06:35:03;2.70;;;2.08;;
50219;SDS011;36110;51.536;7.562;2022-08-03T06:37:30;6.32;;;2.10;;
50219;SDS011;36110;51.536;7.562;2022-08-03T06:39:55;3.88;;;2.10;;
50219;SDS011;36110;51.536;7.562;2022-08-03T06:42:20;4.30;;;2.40;;
50219;SDS011;36110;51.536;7.562;2022-08-03T06:44:46;3.08;;;2.03;;
50219;SDS011;36110;51.536;7.562;2022-08-03T06:47:11;2.85;;;2.08;;
50219;SDS011;36110;51.536;7.562;2022-08-03T06:49:36;4.18;;;2.00;;
50219;SDS011;36110;51.536;7.562;2022-08-03T06:52:02;3.10;;;2.00;;
50219;SDS011;36110;51.536;7.562;2022-08-03T06:54:28;2.60;;;2.05;;
50219;SDS011;36110;51.536;7.562;2022-08-03T06:56:53;3.03;;;1.90;;
50219;SDS011;36110;51.536;7.562;2022-08-03T06:59:19;4.72;;;2.38;;
50219;SDS011;36110;51.536;7.562;2022-08-03T07:01:44;7.80;;;2.20;;
50219;SDS011;36110;51.536;7.562;2022-08-03T07:04:10;2.15;;;1.77;;
50219;SDS011;36110;51.536;7.562;2022-08-03T07:06:36;2.63;;;2.03;;
50219;SDS011;36110;51.536;7.562;2022-08-03T07:09:02;3.30;;;2.10;;
50219;SDS011;36110;51.536;7.562;2022-08-03T07:11:27;1.90;;;1.70;;
50219;SDS011;36110;51.536;7.562;2022-08-03T07:13:52;5.53;;;2.28;;
50219;SDS011;36110;51.536;7.562;2022-08-03T07:16:18;1.80;;;1.60;;
50219;SDS011;36110;51.536;7.562;2022-08-03T07:18:43;4.93;;;2.10;;
50219;SDS011;36110;51.536;7.562;2022-08-03T07:21:08;3.40;;;1.88;;
50219;SDS011;36110;51.536;7.562;2022-08-03T07:23:34;1.80;;;1.70;;
50219;SDS011;36110;51.536;7.562;2022-08-03T07:26:00;2.53;;;1.85;;
50219;SDS011;36110;51.536;7.562;2022-08-03T07:28:25;2.13;;;1.98;;
50219;SDS011;36110;51.536;7.562;2022-08-03T07:30:50;6.97;;;2.15;;
50219;SDS011;36110;51.536;7.562;2022-08-03T07:33:16;11.82;;;1.98;;
50219;SDS011;36110;51.536;7.562;2022-08-03T07:35:41;8.15;;;2.30;;
50219;SDS011;36110;51.536;7.562;2022-08-03T07:38:06;12.63;;;2.30;;
50219;SDS011;36110;51.536;7.562;2022-08-03T07:40:32;10.68;;;2.00;;
50219;SDS011;36110;51.536;7.562;2022-08-03T07:42:58;8.00;;;2.00;;
50219;SDS011;36110;51.536;7.562;2022-08-03T07:45:23;8.98;;;2.35;;
50219;SDS011;36110;51.536;7.562;2022-08-03T07:47:50;4.90;;;2.10;;
50219;SDS011;36110;51.536;7.562;2022-08-03T07:50:15;7.93;;;2.03;;
50219;SDS011;36110;51.536;7.562;2022-08-03T07:52:41;4.45;;;2.08;;
50219;SDS011;36110;51.536;7.562;2022-08-03T07:55:12;4.20;;;2.00;;
50219;SDS011;36110;51.536;7.562;2022-08-03T07:57:37;6.22;;;2.08;;
50219;SDS011;36110;51.536;7.562;2022-08-03T08:00:03;4.30;;;2.22;;
50219;SDS011;36110;51.536;7.562;2022-08-03T08:02:29;5.82;;;2.35;;
50219;SDS011;36110;51.536;7.562;2022-08-03T08:04:55;4.53;;;1.95;;
50219;SDS011;36110;51.536;7.562;2022-08-03T08:07:20;4.10;;;1.95;;
50219;SDS011;36110;51.536;7.562;2022-08-03T08:09:45;4.68;;;1.95;;
50219;SDS011;36110;51.536;7.562;2022-08-03T08:12:11;4.13;;;2.28;;
50219;SDS011;36110;51.536;7.562;2022-08-03T08:14:36;6.28;;;2.15;;
50219;SDS011;36110;51.536;7.562;2022-08-03T08:17:02;9.40;;;2.40;;
50219;SDS011;36110;51.536;7.562;2022-08-03T08:19:27;6.32;;;2.03;;
50219;SDS011;36110;51.536;7.562;2022-08-03T08:21:52;4.28;;;2.08;;
50219;SDS011;36110;51.536;7.562;2022-08-03T08:24:18;5.45;;;1.90;;
50219;SDS011;36110;51.536;7.562;2022-08-03T08:26:43;5.38;;;2.30;;
50219;SDS011;36110;51.536;7.562;2022-08-03T08:29:08;8.13;;;2.50;;
50219;SDS011;36110;51.536;7.562;2022-08-03T08:31:34;4.45;;;2.10;;
50219;SDS011;36110;51.536;7.562;2022-08-03T08:33:59;5.38;;;2.22;;
50219;SDS011;36110;51.536;7.562;2022-08-03T08:36:32;3.78;;;1.92;;
50219;SDS011;36110;51.536;7.562;2022-08-03T08:39:56;2.63;;;1.77;;
50219;SDS011;36110;51.536;7.562;2022-08-03T08:42:21;3.85;;;1.88;;
50219;SDS011;36110;51.536;7.562;2022-08-03T08:44:47;6.82;;;1.98;;
50219;SDS011;36110;51.536;7.562;2022-08-03T08:47:13;4.03;;;1.80;;
50219;SDS011;36110;51.536;7.562;2022-08-03T08:49:38;3.40;;;2.03;;
50219;SDS011;36110;51.536;7.562;2022-08-03T08:52:04;3.75;;;2.22;;
50219;SDS011;36110;51.536;7.562;2022-08-03T08:54:34;3.25;;;2.00;;
50219;SDS011;36110;51.536;7.562;2022-08-03T08:57:01;5.35;;;1.90;;
50219;SDS011;36110;51.536;7.562;2022-08-03T08:59:28;3.58;;;2.03;;
50219;SDS011;36110;51.536;7.562;2022-08-03T09:01:56;2.55;;;1.75;;
50219;SDS011;36110;51.536;7.562;2022-08-03T09:04:22;3.95;;;2.15;;
50219;SDS011;36110;51.536;7.562;2022-08-03T09:06:48;2.50;;;1.70;;
50219;SDS011;36110;51.536;7.562;2022-08-03T09:09:14;5.28;;;2.38;;
50219;SDS011;36110;51.536;7.562;2022-08-03T09:11:42;5.50;;;1.98;;
50219;SDS011;36110;51.536;7.562;2022-08-03T09:14:08;4.28;;;2.10;;
50219;SDS011;36110;51.536;7.562;2022-08-03T09:16:34;6.13;;;2.35;;
50219;SDS011;36110;51.536;7.562;2022-08-03T09:19:10;3.25;;;2.00;;
50219;SDS011;36110;51.536;7.562;2022-08-03T09:21:37;3.97;;;2.33;;
50219;SDS011;36110;51.536;7.562;2022-08-03T09:24:03;2.33;;;1.83;;
50219;SDS011;36110;51.536;7.562;2022-08-03T09:26:30;5.25;;;2.20;;
50219;SDS011;36110;51.536;7.562;2022-08-03T09:28:56;2.38;;;1.77;;
50219;SDS011;36110;51.536;7.562;2022-08-03T09:31:32;2.72;;;1.80;;
50219;SDS011;36110;51.536;7.562;2022-08-03T09:34:02;6.35;;;2.53;;
50219;SDS011;36110;51.536;7.562;2022-08-03T09:36:39;2.53;;;1.90;;
50219;SDS011;36110;51.536;7.562;2022-08-03T09:39:07;2.28;;;1.83;;
50219;SDS011;36110;51.536;7.562;2022-08-03T09:41:40;3.53;;;1.80;;
50219;SDS011;36110;51.536;7.562;2022-08-03T09:44:08;6.10;;;2.22;;
50219;SDS011;36110;51.536;7.562;2022-08-03T09:49:14;4.55;;;2.38;;
50219;SDS011;36110;51.536;7.562;2022-08-03T09:51:39;1.80;;;1.50;;
50219;SDS011;36110;51.536;7.562;2022-08-03T09:54:05;5.30;;;2.25;;
50219;SDS011;36110;51.536;7.562;2022-08-03T09:56:44;5.55;;;2.42;;
50219;SDS011;36110;51.536;7.562;2022-08-03T09:59:11;1.98;;;1.70;;
50219;SDS011;36110;51.536;7.562;2022-08-03T10:01:38;3.42;;;1.73;;
50219;SDS011;36110;51.536;7.562;2022-08-03T10:04:12;5.78;;;2.20;;
50219;SDS011;36110;51.536;7.562;2022-08-03T10:06:39;6.53;;;2.17;;
50219;SDS011;36110;51.536;7.562;2022-08-03T10:09:08;3.13;;;1.90;;
50219;SDS011;36110;51.536;7.562;2022-08-03T10:11:34;4.03;;;1.98;;
50219;SDS011;36110;51.536;7.562;2022-08-03T10:14:02;3.67;;;2.25;;
50219;SDS011;36110;51.536;7.562;2022-08-03T10:16:35;2.55;;;1.80;;
50219;SDS011;36110;51.536;7.562;2022-08-03T10:19:04;1.90;;;1.70;;
50219;SDS011;36110;51.536;7.562;2022-08-03T10:21:34;6.32;;;2.28;;
50219;SDS011;36110;51.536;7.562;2022-08-03T10:24:08;3.15;;;2.20;;
50219;SDS011;36110;51.536;7.562;2022-08-03T10:26:35;5.00;;;1.83;;
50219;SDS011;36110;51.536;7.562;2022-08-03T10:29:03;1.70;;;1.58;;
50219;SDS011;36110;51.536;7.562;2022-08-03T10:31:38;2.10;;;1.90;;
50219;SDS011;36110;51.536;7.562;2022-08-03T10:34:16;2.20;;;1.50;;
50219;SDS011;36110;51.536;7.562;2022-08-03T10:36:43;3.20;;;2.08;;
50219;SDS011;36110;51.536;7.562;2022-08-03T10:39:09;5.75;;;1.90;;
50219;SDS011;36110;51.536;7.562;2022-08-03T10:41:37;2.00;;;1.55;;
50219;SDS011;36110;51.536;7.562;2022-08-03T10:44:05;3.78;;;2.17;;
50219;SDS011;36110;51.536;7.562;2022-08-03T10:46:33;5.70;;;2.50;;
50219;SDS011;36110;51.536;7.562;2022-08-03T10:49:00;6.15;;;2.28;;
50219;SDS011;36110;51.536;7.562;2022-08-03T10:51:27;4.00;;;2.10;;
50219;SDS011;36110;51.536;7.562;2022-08-03T10:53:56;6.63;;;1.90;;
50219;SDS011;36110;51.536;7.562;2022-08-03T10:59:18;5.25;;;2.22;;
50219;SDS011;36110;51.536;7.562;2022-08-03T11:01:48;3.47;;;1.80;;
50219;SDS011;36110;51.536;7.562;2022-08-03T11:04:18;2.47;;;1.80;;
50219;SDS011;36110;51.536;7.562;2022-08-03T11:06:45;8.63;;;2.10;;
50219;SDS011;36110;51.536;7.562;2022-08-03T11:11:37;5.77;;;1.63;;
50219;SDS011;36110;51.536;7.562;2022-08-03T11:16:30;4.65;;;1.95;;
50219;SDS011;36110;51.536;7.562;2022-08-03T11:18:59;1.67;;;1.45;;
50219;SDS011;36110;51.536;7.562;2022-08-03T11:25:14;1.90;;;1.75;;
50219;SDS011;36110;51.536;7.562;2022-08-03T11:27:21;2.10;;;1.65;;
50219;SDS011;36110;51.536;7.562;2022-08-03T11:40:33;3.72;;;1.70;;
50219;SDS011;36110;51.536;7.562;2022-08-03T11:43:09;5.15;;;1.75;;
50219;SDS011;36110;51.536;7.562;2022-08-03T11:48:28;6.97;;;2.45;;
50219;SDS011;36110;51.536;7.562;2022-08-03T11:50:57;5.97;;;1.98;;
50219;SDS011;36110;51.536;7.562;2022-08-03T11:53:23;5.00;;;2.10;;
50219;SDS011;36110;51.536;7.562;2022-08-03T11:55:48;3.47;;;2.10;;
50219;SDS011;36110;51.536;7.562;2022-08-03T11:58:14;3.65;;;2.00;;
50219;SDS011;36110;51.536;7.562;2022-08-03T12:00:41;3.75;;;2.05;;
50219;SDS011;36110;51.536;7.562;2022-08-03T12:03:07;4.13;;;1.80;;
50219;SDS011;36110;51.536;7.562;2022-08-03T12:08:11;2.50;;;1.75;;
50219;SDS011;36110;51.536;7.562;2022-08-03T12:10:44;3.00;;;1.88;;
50219;SDS011;36110;51.536;7.562;2022-08-03T12:13:11;4.55;;;1.90;;
50219;SDS011;36110;51.536;7.562;2022-08-03T12:15:36;3.03;;;1.80;;
50219;SDS011;36110;51.536;7.562;2022-08-03T12:18:03;6.50;;;2.03;;
50219;SDS011;36110;51.536;7.562;2022-08-03T12:20:36;3.85;;;2.00;;
50219;SDS011;36110;51.536;7.562;2022-08-03T12:23:05;4.43;;;2.20;;
50219;SDS011;36110;51.536;7.562;2022-08-03T12:25:31;3.40;;;1.80;;
50219;SDS011;36110;51.536;7.562;2022-08-03T12:30:34;2.53;;;1.50;;
50219;SDS011;36110;51.536;7.562;2022-08-03T12:33:10;6.60;;;1.90;;
50219;SDS011;36110;51.536;7.562;2022-08-03T12:35:39;4.78;;;1.48;;
50219;SDS011;36110;51.536;7.562;2022-08-03T12:38:05;5.28;;;1.77;;
50219;SDS011;36110;51.536;7.562;2022-08-03T12:40:30;8.40;;;1.90;;
50219;SDS011;36110;51.536;7.562;2022-08-03T12:42:55;3.55;;;1.73;;
50219;SDS011;36110;51.536;7.562;2022-08-03T12:45:21;1.70;;;1.60;;
50219;SDS011;36110;51.536;7.562;2022-08-03T12:47:57;7.68;;;2.08;;
50219;SDS011;36110;51.536;7.562;2022-08-03T12:50:34;1.67;;;1.45;;
50219;SDS011;36110;51.536;7.562;2022-08-03T12:53:01;1.75;;;1.55;;
50219;SDS011;36110;51.536;7.562;2022-08-03T12:55:29;2.03;;;1.58;;
50219;SDS011;36110;51.536;7.562;2022-08-03T12:58:03;2.58;;;1.60;;
50219;SDS011;36110;51.536;7.562;2022-08-03T13:00:30;10.05;;;1.92;;
50219;SDS011;36110;51.536;7.562;2022-08-03T13:02:59;3.03;;;1.50;;
50219;SDS011;36110;51.536;7.562;2022-08-03T13:05:30;1.92;;;1.63;;
50219;SDS011;36110;51.536;7.562;2022-08-03T13:07:56;2.95;;;1.90;;
50219;SDS011;36110;51.536;7.562;2022-08-03T13:10:29;2.50;;;1.48;;
50219;SDS011;36110;51.536;7.562;2022-08-03T13:12:55;2.47;;;1.85;;
50219;SDS011;36110;51.536;7.562;2022-08-03T13:15:23;6.47;;;2.33;;
50219;SDS011;36110;51.536;7.562;2022-08-03T13:17:50;1.95;;;1.50;;
50219;SDS011;36110;51.536;7.562;2022-08-03T13:20:16;5.10;;;1.80;;
50219;SDS011;36110;51.536;7.562;2022-08-03T13:22:41;4.30;;;1.50;;
50219;SDS011;36110;51.536;7.562;2022-08-03T13:25:10;2.70;;;1.73;;
50219;SDS011;36110;51.536;7.562;2022-08-03T13:27:36;1.95;;;1.50;;
50219;SDS011;36110;51.536;7.562;2022-08-03T13:30:01;2.58;;;1.40;;
50219;SDS011;36110;51.536;7.562;2022-08-03T13:32:27;2.88;;;1.40;;
50219;SDS011;36110;51.536;7.562;2022-08-03T13:34:53;3.63;;;1.50;;
50219;SDS011;36110;51.536;7.562;2022-08-03T13:37:18;2.80;;;1.48;;
50219;SDS011;36110;51.536;7.562;2022-08-03T13:39:43;1.95;;;1.50;;
50219;SDS011;36110;51.536;7.562;2022-08-03T13:42:09;2.60;;;1.58;;
50219;SDS011;36110;51.536;7.562;2022-08-03T13:44:34;2.63;;;1.60;;
50219;SDS011;36110;51.536;7.562;2022-08-03T13:47:03;1.73;;;1.55;;
50219;SDS011;36110;51.536;7.562;2022-08-03T13:49:28;2.05;;;1.38;;
50219;SDS011;36110;51.536;7.562;2022-08-03T13:51:54;1.67;;;1.33;;
50219;SDS011;36110;51.536;7.562;2022-08-03T13:54:20;2.95;;;1.65;;
50219;SDS011;36110;51.536;7.562;2022-08-03T13:56:46;3.58;;;1.50;;
50219;SDS011;36110;51.536;7.562;2022-08-03T13:59:20;2.92;;;1.50;;
50219;SDS011;36110;51.536;7.562;2022-08-03T14:01:46;2.05;;;1.23;;
50219;SDS011;36110;51.536;7.562;2022-08-03T14:04:12;3.45;;;1.50;;
50219;SDS011;36110;51.536;7.562;2022-08-03T14:06:37;2.72;;;1.60;;
50219;SDS011;36110;51.536;7.562;2022-08-03T14:09:03;1.70;;;1.58;;
50219;SDS011;36110;51.536;7.562;2022-08-03T14:11:28;2.22;;;1.42;;
50219;SDS011;36110;51.536;7.562;2022-08-03T14:13:54;2.00;;;1.27;;
50219;SDS011;36110;51.536;7.562;2022-08-03T14:16:19;1.63;;;1.35;;
50219;SDS011;36110;51.536;7.562;2022-08-03T14:18:44;1.45;;;1.35;;
50219;SDS011;36110;51.536;7.562;2022-08-03T14:21:10;2.70;;;1.45;;
50219;SDS011;36110;51.536;7.562;2022-08-03T14:23:36;8.13;;;1.42;;
50219;SDS011;36110;51.536;7.562;2022-08-03T14:26:02;1.73;;;1.40;;
50219;SDS011;36110;51.536;7.562;2022-08-03T14:28:28;1.42;;;1.20;;
50219;SDS011;36110;51.536;7.562;2022-08-03T14:30:54;5.18;;;1.70;;
50219;SDS011;36110;51.536;7.562;2022-08-03T14:33:20;1.95;;;1.35;;
50219;SDS011;36110;51.536;7.562;2022-08-03T14:35:46;4.13;;;1.45;;
50219;SDS011;36110;51.536;7.562;2022-08-03T14:38:11;1.70;;;1.30;;
50219;SDS011;36110;51.536;7.562;2022-08-03T14:40:37;6.45;;;1.60;;
50219;SDS011;36110;51.536;7.562;2022-08-03T14:43:02;2.38;;;1.50;;
50219;SDS011;36110;51.536;7.562;2022-08-03T14:45:28;3.90;;;1.40;;
50219;SDS011;36110;51.536;7.562;2022-08-03T14:47:53;1.20;;;1.20;;
50219;SDS011;36110;51.536;7.562;2022-08-03T14:50:18;4.60;;;1.10;;
50219;SDS011;36110;51.536;7.562;2022-08-03T14:52:44;4.47;;;1.40;;
50219;SDS011;36110;51.536;7.562;2022-08-03T14:55:09;6.63;;;1.45;;
50219;SDS011;36110;51.536;7.562;2022-08-03T14:57:34;9.13;;;1.50;;
50219;SDS011;36110;51.536;7.562;2022-08-03T15:00:00;3.25;;;1.23;;
50219;SDS011;36110;51.536;7.562;2022-08-03T15:02:25;3.75;;;1.52;;
50219;SDS011;36110;51.536;7.562;2022-08-03T15:04:52;1.45;;;1.10;;
50219;SDS011;36110;51.536;7.562;2022-08-03T15:07:18;3.85;;;1.27;;
50219;SDS011;36110;51.536;7.562;2022-08-03T15:09:44;1.73;;;1.27;;
50219;SDS011;36110;51.536;7.562;2022-08-03T15:12:09;2.67;;;1.25;;
50219;SDS011;36110;51.536;7.562;2022-08-03T15:14:35;2.35;;;1.40;;
50219;SDS011;36110;51.536;7.562;2022-08-03T15:17:00;3.17;;;1.50;;
50219;SDS011;36110;51.536;7.562;2022-08-03T15:19:25;1.20;;;1.10;;
50219;SDS011;36110;51.536;7.562;2022-08-03T15:21:51;1.02;;;1.00;;
50219;SDS011;36110;51.536;7.562;2022-08-03T15:24:16;1.98;;;1.23;;
50219;SDS011;36110;51.536;7.562;2022-08-03T15:26:41;2.63;;;1.48;;
50219;SDS011;36110;51.536;7.562;2022-08-03T15:29:07;1.80;;;1.42;;
50219;SDS011;36110;51.536;7.562;2022-08-03T15:31:32;1.35;;;1.00;;
50219;SDS011;36110;51.536;7.562;2022-08-03T15:33:58;1.35;;;1.13;;
50219;SDS011;36110;51.536;7.562;2022-08-03T15:36:23;4.30;;;1.50;;
50219;SDS011;36110;51.536;7.562;2022-08-03T15:38:49;5.38;;;1.60;;
50219;SDS011;36110;51.536;7.562;2022-08-03T15:41:14;3.33;;;1.33;;